Time;durP1;ratioP1;P1;durP2;ratioP2;P2;SDS_P1;SDS_P2;PMS_P1;PMS_P2;Temp;Humidity;BMP_temperature;BMP_pressure;BME280_temperature;BME280_humidity;BME280_pressure;Samples;Min_cycle;Max_cycle;Signal;HPM_P1;HPM_P2
2022/06/25 00:01:22;;;;;;;7.38;1.42;;;;;;;26.17;40.56;100671.22;6218848;23;20431;-44
2022/06/25 00:03:51;;;;;;;5.32;1.42;;;;;;;26.17;40.73;100673.84;6245629;23;20008;-49
2022/06/25 00:06:20;;;;;;;4.65;1.60;;;;;;;26.12;40.75;100671.22;6245534;23;20008;-43
2022/06/25 00:08:50;;;;;;;3.60;1.17;;;;;;;26.03;40.97;100658.03;6219125;23;20008;-43
2022/06/25 00:14:10;;;;;;;4.75;1.42;;;;;;;26.09;40.91;100665.94;6234592;23;20083;-43
2022/06/25 00:16:39;;;;;;;3.92;1.50;;;;;;;26.03;40.70;100669.44;6245836;23;20010;-43
2022/06/25 00:19:07;;;;;;;3.60;1.25;;;;;;;25.93;41.05;100644.03;6220497;23;20082;-43
2022/06/25 00:21:36;;;;;;;5.22;1.55;;;;;;;26.06;40.84;100664.16;6247530;23;20012;-44
2022/06/25 00:24:04;;;;;;;4.53;1.55;;;;;;;25.89;40.71;100647.56;6247708;23;20004;-45
2022/06/25 00:26:33;;;;;;;4.65;1.48;;;;;;;25.98;40.90;100665.94;6247139;23;20005;-44
2022/06/25 00:29:00;;;;;;;3.67;1.25;;;;;;;25.93;41.03;100663.31;6248612;23;20000;-43
2022/06/25 00:31:28;;;;;;;3.05;1.27;;;;;;;25.96;40.90;100657.16;6221330;23;20016;-43
2022/06/25 00:33:56;;;;;;;4.47;1.75;;;;;;;26.01;40.78;100665.06;6247219;23;20004;-43
2022/06/25 00:36:25;;;;;;;4.35;1.50;;;;;;;25.98;40.69;100665.06;6248000;23;20007;-44
2022/06/25 00:38:52;;;;;;;5.88;1.63;;;;;;;25.99;40.61;100662.44;6220540;23;20008;-43
2022/06/25 00:41:20;;;;;;;5.13;1.50;;;;;;;25.85;40.75;100644.03;6247875;23;20008;-44
2022/06/25 00:43:49;;;;;;;5.57;1.17;;;;;;;25.96;40.94;100656.31;6246913;23;20015;-44
2022/06/25 00:46:16;;;;;;;4.88;1.50;;;;;;;25.97;40.76;100665.94;6247370;23;20004;-43
2022/06/25 00:48:44;;;;;;;4.20;1.27;;;;;;;26.00;40.43;100677.34;6222066;23;20300;-43
2022/06/25 00:51:15;;;;;;;3.60;1.52;;;;;;;25.93;40.64;100668.56;6220524;23;20004;-42
2022/06/25 00:53:45;;;;;;;5.72;1.67;;;;;;;25.96;40.57;100670.31;6245412;23;20008;-47
2022/06/25 00:56:15;;;;;;;3.30;1.20;;;;;;;25.92;40.38;100679.06;6247407;23;20368;-50
2022/06/25 00:58:45;;;;;;;5.35;1.58;;;;;;;25.96;40.81;100674.72;6245737;23;20062;-43
2022/06/25 01:01:15;;;;;;;4.95;1.33;;;;;;;25.93;40.34;100667.69;6220443;23;20038;-43
2022/06/25 01:03:43;;;;;;;3.55;1.08;;;;;;;25.86;40.41;100664.19;6247369;23;20012;-43
2022/06/25 01:06:12;;;;;;;6.07;1.60;;;;;;;25.96;40.16;100670.31;6247369;23;20027;-43
2022/06/25 01:08:41;;;;;;;4.88;1.73;;;;;;;25.83;40.84;100656.28;6246011;23;20309;-43
2022/06/25 01:11:11;;;;;;;2.92;1.20;;;;;;;25.84;40.41;100649.31;6247239;23;20004;-45
2022/06/25 01:13:39;;;;;;;4.75;1.20;;;;;;;25.83;40.56;100653.66;6220206;23;20012;-48
2022/06/25 01:16:08;;;;;;;3.05;1.40;;;;;;;25.85;40.43;100651.91;6195515;23;20050;-43
2022/06/25 01:18:36;;;;;;;4.00;1.42;;;;;;;25.90;40.49;100646.66;6220485;23;20001;-44
2022/06/25 01:21:05;;;;;;;4.03;1.40;;;;;;;25.86;40.29;100650.19;6219982;23;20008;-43
2022/06/25 01:23:34;;;;;;;6.32;1.88;;;;;;;25.87;40.57;100646.69;6220172;23;20079;-43
2022/06/25 01:26:02;;;;;;;5.45;1.73;;;;;;;25.82;40.36;100651.03;6220118;23;20054;-45
2022/06/25 01:28:31;;;;;;;4.65;1.58;;;;;;;25.88;40.62;100651.06;6221301;23;20043;-48
2022/06/25 01:30:59;;;;;;;5.40;1.63;;;;;;;25.87;40.48;100642.28;6245179;23;20066;-43
2022/06/25 01:33:28;;;;;;;4.40;1.60;;;;;;;25.89;40.36;100644.94;6220004;23;20008;-43
2022/06/25 01:35:55;;;;;;;3.38;1.27;;;;;;;25.91;40.53;100651.03;6245385;23;20088;-43
2022/06/25 01:38:24;;;;;;;5.05;1.70;;;;;;;25.91;40.43;100648.41;6246853;23;20046;-43
2022/06/25 01:40:52;;;;;;;6.57;1.42;;;;;;;25.87;40.13;100644.91;6219777;23;20065;-43
2022/06/25 01:43:21;;;;;;;4.40;1.58;;;;;;;25.79;40.56;100636.16;6247154;23;20008;-43
2022/06/25 01:45:50;;;;;;;4.25;1.55;;;;;;;25.81;40.42;100642.31;6247421;23;20404;-46
2022/06/25 01:48:18;;;;;;;5.55;1.65;;;;;;;25.79;40.40;100638.78;6247205;23;20004;-44
2022/06/25 01:50:48;;;;;;;4.85;1.77;;;;;;;25.85;40.14;100638.78;6247794;23;20260;-43
2022/06/25 01:53:16;;;;;;;3.63;1.65;;;;;;;25.79;40.50;100631.78;6246906;23;20070;-43
2022/06/25 01:55:45;;;;;;;4.85;1.48;;;;;;;25.82;40.15;100644.03;6245024;23;20012;-43
2022/06/25 01:58:13;;;;;;;4.10;1.23;;;;;;;25.86;40.09;100634.41;6195088;23;20307;-42
2022/06/25 02:00:42;;;;;;;4.43;1.55;;;;;;;25.79;40.53;100633.53;6246826;23;20015;-42
2022/06/25 02:03:09;;;;;;;5.20;1.80;;;;;;;25.79;40.23;100634.41;6246769;23;20008;-42
2022/06/25 02:05:58;;;;;;;9.10;2.38;;;;;;;25.72;40.15;100632.66;6219643;23;20015;-46
2022/06/25 02:08:27;;;;;;;4.63;1.23;;;;;;;25.73;40.41;100636.16;6245913;23;20059;-43
2022/06/25 02:10:56;;;;;;;5.15;1.75;;;;;;;25.74;40.49;100630.03;6246504;23;20030;-42
2022/06/25 02:13:25;;;;;;;5.18;1.40;;;;;;;25.76;40.40;100631.75;6246524;23;20073;-47
2022/06/25 02:15:54;;;;;;;5.60;1.52;;;;;;;25.71;40.26;100624.75;6246686;23;20004;-42
2022/06/25 02:18:23;;;;;;;4.30;1.30;;;;;;;25.76;40.15;100629.13;6219768;23;20008;-42
2022/06/25 02:20:51;;;;;;;5.50;1.50;;;;;;;25.70;40.12;100623.91;6220388;23;20079;-42
2022/06/25 02:23:21;;;;;;;4.57;1.73;;;;;;;25.70;40.33;100630.88;6246408;23;20004;-42
2022/06/25 02:25:49;;;;;;;3.63;1.30;;;;;;;25.74;40.15;100628.25;6246381;23;20050;-43
2022/06/25 02:28:19;;;;;;;6.90;2.00;;;;;;;25.78;40.28;100639.66;6219608;23;20004;-42
2022/06/25 02:30:48;;;;;;;4.47;1.33;;;;;;;25.76;40.14;100638.78;6246819;23;20027;-43
2022/06/25 02:33:16;;;;;;;3.03;1.20;;;;;;;25.73;40.24;100642.28;6246527;23;20004;-46
2022/06/25 02:35:46;;;;;;;6.13;1.65;;;;;;;25.76;40.35;100636.16;6246254;23;20015;-43
2022/06/25 02:38:15;;;;;;;6.70;1.88;;;;;;;25.72;40.36;100639.66;6245127;23;20373;-43
2022/06/25 02:40:43;;;;;;;6.20;1.77;;;;;;;25.70;40.30;100634.41;6246451;23;20317;-43
2022/06/25 02:43:12;;;;;;;4.15;1.55;;;;;;;25.71;40.15;100627.38;6218918;23;20316;-42
2022/06/25 02:45:40;;;;;;;4.70;1.60;;;;;;;25.55;40.10;100606.38;6244677;23;20450;-43
2022/06/25 02:48:08;;;;;;;3.80;1.27;;;;;;;25.75;40.39;100632.63;6246517;23;20379;-43
2022/06/25 02:50:37;;;;;;;5.63;1.70;;;;;;;25.67;40.15;100618.66;6246147;23;20122;-43
2022/06/25 02:53:06;;;;;;;4.18;1.20;;;;;;;25.81;40.13;100633.53;6219524;23;20004;-44
2022/06/25 02:59:02;;;;;;;5.72;1.40;;;;;;;25.72;40.00;100621.25;6241031;23;20522;-42
2022/06/25 03:01:09;;;;;;;5.05;1.58;;;;;;;25.72;40.43;100632.66;6232671;23;20031;-45
2022/06/25 03:03:37;;;;;;;5.97;1.67;;;;;;;25.68;40.44;100635.25;6245595;23;20015;-46
2022/06/25 03:06:06;;;;;;;3.30;1.23;;;;;;;25.67;40.33;100634.41;6245868;23;20007;-44
2022/06/25 03:08:35;;;;;;;7.78;1.90;;;;;;;25.71;40.35;100630.91;6245490;23;20008;-42
2022/06/25 03:11:04;;;;;;;3.47;1.40;;;;;;;25.67;39.98;100628.25;6245683;23;20088;-43
2022/06/25 03:13:34;;;;;;;6.28;1.48;;;;;;;25.66;40.09;100629.13;6246216;23;20073;-46
2022/06/25 03:16:03;;;;;;;8.02;1.98;;;;;;;25.70;40.13;100633.53;6246007;23;20004;-43
2022/06/25 03:18:32;;;;;;;4.47;1.55;;;;;;;25.69;40.02;100629.13;6246039;23;20023;-44
2022/06/25 03:21:00;;;;;;;4.32;1.85;;;;;;;25.70;39.86;100625.63;6245397;23;20374;-43
2022/06/25 03:23:29;;;;;;;4.60;1.80;;;;;;;25.70;39.96;100626.53;6245420;23;20008;-42
2022/06/25 03:25:58;;;;;;;4.95;1.63;;;;;;;25.65;40.08;100620.38;6245900;23;20011;-47
2022/06/25 03:28:26;;;;;;;4.10;1.60;;;;;;;25.60;40.16;100612.50;6245374;23;20008;-46
2022/06/25 03:30:55;;;;;;;5.75;1.65;;;;;;;25.59;40.40;100613.38;6245457;23;20019;-46
2022/06/25 03:33:23;;;;;;;4.05;1.45;;;;;;;25.62;40.12;100623.91;6245558;23;20004;-44
2022/06/25 03:35:52;;;;;;;6.60;1.92;;;;;;;25.61;39.97;100611.63;6218764;23;20083;-45
2022/06/25 03:38:20;;;;;;;6.97;2.35;;;;;;;25.59;39.93;100609.88;6245612;23;20000;-46
2022/06/25 03:40:49;;;;;;;5.40;1.95;;;;;;;25.66;40.01;100610.75;6245528;23;20034;-47
2022/06/25 03:43:17;;;;;;;4.13;1.50;;;;;;;25.65;40.06;100607.25;6245555;23;20436;-44
2022/06/25 03:45:46;;;;;;;5.65;1.80;;;;;;;25.63;40.14;100606.38;6245223;23;20011;-45
2022/06/25 03:48:14;;;;;;;5.32;1.48;;;;;;;25.61;40.10;100605.50;6218792;23;20004;-45
2022/06/25 03:50:42;;;;;;;5.28;1.65;;;;;;;25.63;39.98;100609.91;6245672;23;20011;-44
2022/06/25 03:53:09;;;;;;;5.45;1.88;;;;;;;25.61;40.16;100605.50;6246485;23;20000;-48
2022/06/25 03:55:38;;;;;;;5.80;1.70;;;;;;;25.59;40.26;100608.13;6247627;23;20087;-43
2022/06/25 03:58:05;;;;;;;5.25;2.13;;;;;;;25.59;39.92;100602.00;6247560;23;20004;-46
2022/06/25 04:00:34;;;;;;;7.97;2.08;;;;;;;25.62;39.92;100599.38;6247952;23;20011;-49
2022/06/25 04:03:01;;;;;;;6.38;2.10;;;;;;;25.65;39.93;100599.38;6247329;23;20008;-44
2022/06/25 04:05:30;;;;;;;5.22;2.15;;;;;;;25.65;39.83;100595.88;6247823;23;20000;-48
2022/06/25 04:07:58;;;;;;;7.28;1.85;;;;;;;25.62;39.79;100599.38;6247349;23;20446;-47
2022/06/25 04:10:27;;;;;;;5.72;2.15;;;;;;;25.59;40.09;100597.63;6247366;23;20011;-43
2022/06/25 04:12:56;;;;;;;7.03;1.77;;;;;;;25.63;39.66;100598.50;6247456;23;20011;-43
2022/06/25 04:15:24;;;;;;;6.35;1.77;;;;;;;25.57;39.85;100593.22;6246772;23;20374;-48
2022/06/25 04:17:53;;;;;;;5.00;1.67;;;;;;;25.50;40.24;100584.47;6247345;23;20004;-47
2022/06/25 04:20:21;;;;;;;6.72;2.10;;;;;;;25.55;39.86;100598.50;6247416;23;20007;-43
2022/06/25 04:22:50;;;;;;;5.43;1.58;;;;;;;25.57;39.86;100590.59;6247756;23;20339;-49
2022/06/25 04:25:18;;;;;;;7.30;1.88;;;;;;;25.57;39.77;100591.50;6247279;23;20000;-43
2022/06/25 04:30:33;;;;;;;5.72;2.40;;;;;;;25.53;39.70;100581.84;6236851;23;20040;-44
2022/06/25 04:33:01;;;;;;;7.07;1.77;;;;;;;25.54;39.99;100586.22;6246741;23;20004;-44
2022/06/25 04:35:28;;;;;;;4.85;1.88;;;;;;;25.54;39.92;100590.63;6247354;23;20050;-47
2022/06/25 04:37:56;;;;;;;3.45;1.48;;;;;;;25.49;39.68;100587.97;6247511;23;20004;-48
2022/06/25 04:40:24;;;;;;;4.30;1.65;;;;;;;25.48;40.03;100586.25;6247175;23;20010;-52
2022/06/25 04:42:53;;;;;;;5.30;1.65;;;;;;;25.46;39.92;100582.75;6247131;23;20011;-42
2022/06/25 04:45:22;;;;;;;6.65;1.85;;;;;;;25.50;40.01;100584.47;6247110;23;20323;-50
2022/06/25 04:47:50;;;;;;;6.20;1.63;;;;;;;25.48;39.67;100575.75;6247245;23;20015;-49
2022/06/25 04:50:19;;;;;;;5.15;1.85;;;;;;;25.51;39.87;100588.00;6247253;23;20094;-44
2022/06/25 04:52:47;;;;;;;4.65;1.90;;;;;;;25.53;39.87;100588.88;6247366;23;20004;-44
2022/06/25 04:55:16;;;;;;;6.95;1.90;;;;;;;25.46;39.89;100580.13;6247004;23;20012;-47
2022/06/25 04:57:45;;;;;;;6.95;1.98;;;;;;;25.49;40.02;100590.59;6246926;23;20326;-47
2022/06/25 05:00:12;;;;;;;7.03;2.28;;;;;;;25.55;39.41;100585.34;6247010;23;20432;-46
2022/06/25 05:02:41;;;;;;;4.95;1.85;;;;;;;25.50;39.71;100589.72;6247215;23;20001;-47
2022/06/25 05:05:09;;;;;;;8.60;2.35;;;;;;;25.38;39.65;100584.44;6246444;23;20011;-49
2022/06/25 05:07:38;;;;;;;9.07;2.05;;;;;;;25.21;40.15;100571.31;6247214;23;20082;-43
2022/06/25 05:10:06;;;;;;;7.18;2.00;;;;;;;25.31;40.14;100589.69;6247315;23;20000;-45
2022/06/25 05:13:14;;;;;;;5.55;2.30;;;;;;;25.31;39.85;100584.44;6247556;23;20007;-46
2022/06/25 05:15:22;;;;;;;9.32;2.58;;;;;;;25.34;39.68;100587.06;6238293;23;20439;-48
2022/06/25 05:17:49;;;;;;;6.22;2.03;;;;;;;25.34;39.93;100588.81;6246816;23;20079;-44
2022/06/25 05:20:18;;;;;;;6.68;2.05;;;;;;;25.29;39.85;100585.31;6245359;23;20000;-47
2022/06/25 05:22:46;;;;;;;6.53;2.40;;;;;;;25.37;39.78;100590.56;6246540;23;20058;-47
2022/06/25 05:25:15;;;;;;;7.07;2.33;;;;;;;25.36;40.01;100591.44;6246663;23;20011;-46
2022/06/25 05:27:44;;;;;;;8.00;2.50;;;;;;;25.39;39.75;100594.06;6246786;23;20008;-44
2022/06/25 05:30:12;;;;;;;8.35;2.67;;;;;;;25.48;39.51;100595.00;6246684;23;20007;-46
2022/06/25 05:32:40;;;;;;;5.15;1.95;;;;;;;25.46;39.56;100595.88;6246472;23;20004;-48
2022/06/25 05:35:08;;;;;;;7.95;2.35;;;;;;;25.50;39.33;100589.72;6247241;23;20050;-46
2022/06/25 05:37:36;;;;;;;8.38;1.95;;;;;;;25.54;39.36;100594.13;6219977;23;20094;-43
2022/06/25 05:40:04;;;;;;;6.55;1.75;;;;;;;25.51;39.36;100593.25;6246909;23;20000;-52
2022/06/25 05:42:31;;;;;;;7.85;2.28;;;;;;;25.37;39.81;100580.94;6246659;23;20042;-54
2022/06/25 05:45:00;;;;;;;5.28;1.63;;;;;;;25.49;39.61;100601.09;6219966;23;20004;-50
2022/06/25 05:47:28;;;;;;;6.80;2.00;;;;;;;25.46;39.68;100598.50;6246515;23;20001;-44
2022/06/25 05:49:57;;;;;;;7.70;1.60;;;;;;;25.50;39.67;100600.22;6246729;23;20095;-43
2022/06/25 05:52:26;;;;;;;6.78;1.80;;;;;;;25.54;39.37;100595.88;6246832;23;20016;-43
2022/06/25 05:54:55;;;;;;;4.85;1.95;;;;;;;25.58;39.51;100587.09;6246541;23;20343;-43
2022/06/25 05:57:23;;;;;;;3.65;1.50;;;;;;;25.72;38.92;100584.47;6246396;23;20382;-43
2022/06/25 05:59:52;;;;;;;5.57;1.98;;;;;;;25.83;39.21;100598.47;6246461;23;20028;-43
2022/06/25 06:02:20;;;;;;;5.32;1.80;;;;;;;25.97;38.88;100602.88;6246244;23;20065;-44
2022/06/25 06:04:49;;;;;;;6.00;1.98;;;;;;;26.07;38.76;100599.34;6246980;23;20007;-47
2022/06/25 06:07:17;;;;;;;8.38;2.38;;;;;;;26.13;38.73;100602.00;6246654;23;20304;-48
2022/06/25 06:09:47;;;;;;;4.90;1.85;;;;;;;26.22;38.66;100606.38;6246251;23;20004;-46
2022/06/25 06:12:16;;;;;;;5.38;2.38;;;;;;;26.31;38.47;100594.97;6246158;23;20011;-43
2022/06/25 06:14:44;;;;;;;6.90;2.47;;;;;;;26.31;38.83;100621.25;6246184;23;20000;-46
2022/06/25 06:17:13;;;;;;;8.18;2.58;;;;;;;26.32;38.66;100602.84;6219863;23;20007;-49
2022/06/25 06:19:42;;;;;;;8.10;3.05;;;;;;;26.29;38.43;100618.59;6246514;23;20058;-47
2022/06/25 06:22:10;;;;;;;7.40;3.03;;;;;;;26.31;38.37;100616.00;6245891;23;20391;-54
2022/06/25 06:24:37;;;;;;;7.88;3.17;;;;;;;26.30;38.49;100601.94;6246550;23;20000;-53
2022/06/25 06:27:04;;;;;;;7.45;3.63;;;;;;;26.34;38.40;100605.44;6244689;23;20004;-47
2022/06/25 06:29:31;;;;;;;9.05;3.15;;;;;;;26.36;38.21;100606.31;6245174;23;20000;-44
2022/06/25 06:31:59;;;;;;;6.13;2.88;;;;;;;26.33;38.19;100595.81;6246401;23;20335;-50
2022/06/25 06:34:30;;;;;;;9.43;2.80;;;;;;;26.35;38.49;100604.56;6219228;23;20008;-43
2022/06/25 06:36:59;;;;;;;5.63;2.90;;;;;;;26.43;38.17;100604.53;6245929;23;20012;-45
2022/06/25 06:39:28;;;;;;;5.90;2.50;;;;;;;26.42;38.34;100611.56;6246232;23;20062;-48
2022/06/25 06:41:56;;;;;;;7.78;2.75;;;;;;;26.36;38.40;100608.94;6245880;23;20011;-49
2022/06/25 06:44:24;;;;;;;9.35;2.80;;;;;;;26.41;38.42;100608.94;6245794;23;20004;-51
2022/06/25 06:46:54;;;;;;;9.18;3.22;;;;;;;26.46;38.49;100615.94;6246306;23;20422;-50
2022/06/25 06:49:22;;;;;;;7.90;3.10;;;;;;;26.45;38.48;100619.47;6218813;23;20000;-46
2022/06/25 06:51:50;;;;;;;6.43;2.42;;;;;;;26.48;38.59;100619.41;6246120;23;20038;-49
2022/06/25 06:54:19;;;;;;;8.43;3.25;;;;;;;26.53;38.38;100616.81;6245216;23;20020;-44
2022/06/25 06:56:48;;;;;;;6.30;2.40;;;;;;;26.54;38.33;100622.03;6246403;23;20428;-43
2022/06/25 06:59:16;;;;;;;7.93;2.10;;;;;;;26.52;38.28;100623.81;6245931;23;19996;-47
2022/06/25 07:01:44;;;;;;;6.78;2.45;;;;;;;26.54;38.54;100626.44;6246497;23;20008;-50
2022/06/25 07:04:13;;;;;;;8.20;2.03;;;;;;;26.54;38.49;100618.56;6245861;23;20007;-47
2022/06/25 07:06:40;;;;;;;5.63;2.22;;;;;;;26.51;38.56;100614.16;6245560;23;20332;-47
2022/06/25 07:09:09;;;;;;;7.40;2.15;;;;;;;26.56;38.60;100619.41;6245218;23;20008;-46
2022/06/25 07:11:37;;;;;;;10.32;2.72;;;;;;;26.54;38.81;100608.91;6245856;23;20000;-47
2022/06/25 07:14:06;;;;;;;9.95;2.30;;;;;;;26.58;38.74;100619.41;6245504;23;20340;-49
2022/06/25 07:16:35;;;;;;;8.40;2.47;;;;;;;26.65;38.84;100623.75;6246111;23;20048;-43
2022/06/25 07:19:07;;;;;;;10.90;2.63;;;;;;;26.59;38.95;100621.16;6245616;23;20004;-43
2022/06/25 07:21:36;;;;;;;8.68;2.10;;;;;;;26.66;38.91;100630.75;6245250;23;20439;-42
2022/06/25 07:24:05;;;;;;;6.55;1.90;;;;;;;26.66;38.98;100622.88;6219351;23;20004;-43
2022/06/25 07:26:33;;;;;;;5.43;2.15;;;;;;;26.69;38.79;100625.50;6219087;23;20035;-45
2022/06/25 07:29:02;;;;;;;7.43;2.03;;;;;;;26.72;38.75;100627.25;6245613;23;20450;-44
2022/06/25 07:31:31;;;;;;;6.25;1.88;;;;;;;26.67;38.64;100612.38;6245918;23;20031;-43
2022/06/25 07:33:59;;;;;;;5.43;1.70;;;;;;;26.64;38.61;100599.22;6245711;23;20091;-43
2022/06/25 07:36:28;;;;;;;8.55;2.10;;;;;;;26.84;38.70;100621.97;6245780;23;20043;-43
2022/06/25 07:38:57;;;;;;;3.90;1.52;;;;;;;26.91;38.58;100617.56;6246181;23;20004;-43
2022/06/25 07:41:26;;;;;;;4.50;1.92;;;;;;;26.90;38.50;100616.66;6245569;23;20046;-43
2022/06/25 07:43:54;;;;;;;5.68;1.88;;;;;;;26.95;38.56;100616.66;6246319;23;20004;-43
2022/06/25 07:46:23;;;;;;;3.80;1.65;;;;;;;27.03;38.62;100620.13;6246189;23;20105;-42
2022/06/25 07:48:52;;;;;;;4.97;2.47;;;;;;;26.99;38.40;100614.00;6245615;23;20026;-43
2022/06/25 07:52:01;;;;;;;4.63;1.77;;;;;;;27.07;38.50;100618.31;6245768;23;20414;-44
2022/06/25 07:54:08;;;;;;;4.57;1.80;;;;;;;27.09;38.41;100620.09;6240659;23;20020;-43
2022/06/25 07:56:37;;;;;;;5.25;1.77;;;;;;;27.14;38.48;100617.44;6245607;23;20004;-43
2022/06/25 07:59:05;;;;;;;6.38;1.52;;;;;;;27.18;38.38;100620.91;6246164;23;20058;-43
2022/06/25 08:01:34;;;;;;;4.75;1.60;;;;;;;27.17;38.26;100613.88;6245942;23;20432;-43
2022/06/25 08:04:03;;;;;;;6.25;1.55;;;;;;;27.24;38.21;100612.97;6219153;23;20011;-42
2022/06/25 08:06:34;;;;;;;4.43;1.90;;;;;;;27.28;38.19;100619.97;6245679;23;20470;-43
2022/06/25 08:09:04;;;;;;;4.22;1.60;;;;;;;27.29;38.13;100614.69;6244349;23;20000;-42
2022/06/25 08:11:33;;;;;;;6.63;1.60;;;;;;;27.36;38.11;100619.94;6246065;23;20023;-43
2022/06/25 08:14:02;;;;;;;3.30;1.48;;;;;;;27.34;38.36;100622.56;6245483;23;20000;-42
2022/06/25 08:16:30;;;;;;;4.60;1.50;;;;;;;27.36;38.14;100620.78;6194600;23;20031;-42
2022/06/25 08:18:59;;;;;;;5.18;1.92;;;;;;;27.44;37.97;100631.28;6219125;23;20517;-42
2022/06/25 08:21:27;;;;;;;4.55;1.40;;;;;;;27.47;37.77;100633.94;6245290;23;20039;-43
2022/06/25 08:23:56;;;;;;;4.38;1.55;;;;;;;27.46;37.83;100623.41;6245126;23;20105;-44
2022/06/25 08:26:25;;;;;;;2.05;1.17;;;;;;;27.52;37.71;100623.34;6246826;23;20067;-43
2022/06/25 08:28:53;;;;;;;4.43;1.35;;;;;;;27.52;37.69;100632.16;6194325;23;20028;-43
2022/06/25 08:31:23;;;;;;;4.75;1.67;;;;;;;27.48;37.64;100645.31;6245886;23;19996;-43
2022/06/25 08:33:51;;;;;;;5.10;1.45;;;;;;;27.51;37.42;100669.91;6245545;23;20004;-43
2022/06/25 08:36:20;;;;;;;5.18;1.50;;;;;;;27.40;37.57;100643.59;6218769;23;20359;-45
2022/06/25 08:38:48;;;;;;;4.28;1.30;;;;;;;27.51;37.19;100656.75;6219294;23;20102;-42
2022/06/25 08:41:17;;;;;;;2.65;1.10;;;;;;;27.51;37.21;100661.13;6246159;23;20008;-43
2022/06/25 08:43:46;;;;;;;4.78;1.80;;;;;;;27.48;37.38;100654.13;6221150;23;20012;-51
2022/06/25 08:46:16;;;;;;;5.53;1.10;;;;;;;27.51;37.35;100648.84;6220861;23;20027;-42
2022/06/25 08:48:44;;;;;;;3.65;1.52;;;;;;;27.39;37.41;100635.69;6247531;23;20004;-43
2022/06/25 08:51:14;;;;;;;4.05;1.10;;;;;;;27.51;37.52;100646.19;6221116;23;20071;-42
2022/06/25 08:53:43;;;;;;;5.45;1.20;;;;;;;27.45;37.61;100638.28;6221084;23;20091;-43
2022/06/25 08:56:12;;;;;;;4.18;1.33;;;;;;;27.43;37.60;100633.06;6220710;23;20016;-43
2022/06/25 08:58:44;;;;;;;3.95;1.20;;;;;;;27.43;37.79;100637.44;6221551;23;20427;-49
2022/06/25 09:01:13;;;;;;;3.05;1.20;;;;;;;27.50;37.70;100639.19;6246110;23;20008;-43
2022/06/25 09:03:42;;;;;;;2.38;1.02;;;;;;;27.52;38.05;100637.41;6247306;23;20011;-43
2022/06/25 09:06:20;;;;;;;5.13;1.20;;;;;;;27.49;37.60;100628.63;6245340;23;20046;-44
2022/06/25 09:09:09;;;;;;;3.38;1.23;;;;;;;27.57;37.87;100640.00;6220627;23;20008;-47
2022/06/25 09:11:57;;;;;;;7.20;1.55;;;;;;;27.61;37.85;100647.00;6220549;23;20070;-44
2022/06/25 09:14:28;;;;;;;3.75;1.40;;;;;;;27.65;37.49;100640.81;6246911;23;20000;-43
2022/06/25 09:17:10;;;;;;;3.25;1.10;;;;;;;27.64;37.79;100641.69;6247172;23;20008;-43
2022/06/25 09:19:40;;;;;;;3.47;1.27;;;;;;;27.68;37.82;100637.28;6195888;23;20012;-43
2022/06/25 09:22:10;;;;;;;5.82;1.15;;;;;;;27.42;35.67;100636.56;6246870;23;20019;-42
2022/06/25 09:24:44;;;;;;;7.07;1.40;;;;;;;26.99;35.52;100631.53;6219907;23;20178;-42
2022/06/25 09:27:14;;;;;;;8.45;1.83;;;;;;;26.73;36.47;100629.88;6246017;23;20107;-43
2022/06/25 09:29:44;;;;;;;5.47;1.33;;;;;;;26.39;36.25;100604.53;6247427;23;20038;-43
2022/06/25 09:32:13;;;;;;;6.13;1.40;;;;;;;26.12;37.02;100623.91;6220261;23;20084;-47
2022/06/25 09:34:42;;;;;;;5.63;1.75;;;;;;;25.58;36.74;100605.50;6246868;23;20004;-48
2022/06/25 09:37:21;;;;;;;6.22;1.95;;;;;;;25.36;37.96;100622.94;6220322;23;20004;-43
2022/06/25 09:39:50;;;;;;;10.35;1.90;;;;;;;25.17;38.59;100628.16;6246711;23;20004;-42
2022/06/25 09:42:23;;;;;;;7.68;2.35;;;;;;;25.26;39.05;100622.94;6219867;23;20119;-43
2022/06/25 09:45:11;;;;;;;6.18;2.00;;;;;;;25.19;38.68;100631.66;6245412;23;20003;-42
2022/06/25 09:47:43;;;;;;;8.55;1.75;;;;;;;25.12;38.27;100630.75;6220456;23;20109;-43
2022/06/25 09:50:14;;;;;;;10.10;2.40;;;;;;;24.77;38.54;100639.38;6220755;23;20324;-42
2022/06/25 09:52:54;;;;;;;9.95;2.65;;;;;;;24.68;39.09;100621.81;6219760;23;20013;-42
2022/06/25 09:55:25;;;;;;;10.27;2.10;;;;;;;24.68;38.96;100624.44;6244824;23;20023;-42
2022/06/25 09:57:54;;;;;;;8.07;2.33;;;;;;;24.54;38.55;100629.66;6247067;23;20011;-43
2022/06/25 10:00:25;;;;;;;8.07;2.28;;;;;;;24.43;39.29;100624.34;6245766;23;20019;-42
2022/06/25 10:02:53;;;;;;;6.85;1.88;;;;;;;24.21;39.20;100625.94;6220417;23;20374;-45
2022/06/25 10:05:41;;;;;;;9.00;2.63;;;;;;;24.24;39.01;100633.81;6245338;23;20007;-52
2022/06/25 10:08:11;;;;;;;10.23;2.38;;;;;;;24.04;39.11;100627.56;6245493;23;20000;-42
2022/06/25 10:10:42;;;;;;;8.75;2.28;;;;;;;24.04;39.80;100633.69;6219990;23;20015;-43
2022/06/25 10:13:10;;;;;;;11.43;2.67;;;;;;;24.18;39.62;100622.41;6246912;23;20042;-43
2022/06/25 10:15:40;;;;;;;9.57;2.85;;;;;;;24.22;39.84;100618.94;6219621;23;20065;-44
2022/06/25 10:18:10;;;;;;;10.85;2.60;;;;;;;24.08;39.03;100618.84;6246796;23;20008;-42
2022/06/25 10:20:40;;;;;;;8.38;2.35;;;;;;;23.78;39.36;100628.19;6219161;23;20016;-42
2022/06/25 10:23:10;;;;;;;8.05;2.40;;;;;;;23.74;39.54;100629.91;6219671;23;20008;-46
2022/06/25 10:25:40;;;;;;;11.20;3.20;;;;;;;23.78;39.75;100629.09;6246536;23;20006;-43
2022/06/25 10:28:11;;;;;;;12.88;3.10;;;;;;;23.79;39.46;100637.81;6219821;23;20088;-44
2022/06/25 10:30:49;;;;;;;10.52;2.65;;;;;;;23.68;38.48;100635.09;6246247;23;20008;-42
2022/06/25 10:33:21;;;;;;;6.57;1.52;;;;;;;23.40;39.03;100608.66;6244577;23;20004;-44
2022/06/25 10:35:50;;;;;;;9.25;2.20;;;;;;;23.56;38.84;100627.13;6219677;23;20430;-46
2022/06/25 10:38:21;;;;;;;6.38;2.17;;;;;;;23.46;39.12;100640.16;6219900;23;20018;-42
2022/06/25 10:40:56;;;;;;;6.35;1.80;;;;;;;23.18;38.83;100634.56;6246026;23;20324;-46
2022/06/25 10:43:46;;;;;;;6.78;1.60;;;;;;;23.20;39.01;100632.00;6246299;23;20071;-44
2022/06/25 10:46:37;;;;;;;5.63;1.58;;;;;;;23.09;38.48;100628.34;6246407;23;20031;-44
2022/06/25 10:49:08;;;;;;;5.00;1.65;;;;;;;23.36;39.05;100631.31;6221514;23;20415;-43
2022/06/25 10:51:43;;;;;;;8.70;1.92;;;;;;;23.39;39.36;100622.59;6219764;23;20027;-44
2022/06/25 10:54:30;;;;;;;;;;;;;;;23.63;38.58;100642.06;6219664;23;20016;-43
2022/06/25 10:57:00;;;;;;;6.15;1.88;;;;;;;23.43;38.81;100641.84;6219262;23;19960;-43
2022/06/25 10:59:39;;;;;;;13.30;3.90;;;;;;;23.29;39.51;100642.56;6245755;23;20008;-45
2022/06/25 11:02:11;;;;;;;9.57;2.85;;;;;;;22.96;39.47;100649.13;6219163;23;20015;-43
2022/06/25 11:04:40;;;;;;;12.90;3.47;;;;;;;22.95;39.10;100641.28;6244516;23;20015;-43
2022/06/25 11:07:18;;;;;;;10.82;2.90;;;;;;;22.87;40.24;100638.56;6194725;23;20004;-46
2022/06/25 11:09:59;;;;;;;7.82;2.47;;;;;;;22.97;40.97;100645.66;6246218;23;20004;-43
2022/06/25 11:12:28;;;;;;;12.57;2.20;;;;;;;22.92;40.01;100643.00;6244712;23;20427;-43
2022/06/25 11:15:08;;;;;;;11.07;2.13;;;;;;;22.96;40.21;100646.53;6219654;23;20525;-44
2022/06/25 11:17:37;;;;;;;7.20;1.83;;;;;;;22.95;39.85;100644.78;6246449;23;20010;-44
2022/06/25 11:20:15;;;;;;;9.18;2.10;;;;;;;22.88;40.72;100635.09;6245883;23;20058;-42
2022/06/25 11:22:52;;;;;;;10.27;2.08;;;;;;;23.11;40.80;100647.56;6219162;23;20016;-44
2022/06/25 11:28:48;;;;;;;8.05;1.60;;;;;;;22.86;40.56;100653.38;6232357;23;20000;-44
2022/06/25 11:30:55;;;;;;;10.98;2.35;;;;;;;22.38;40.39;100643.97;6236546;23;20039;-45
2022/06/25 11:33:24;;;;;;;7.45;1.60;;;;;;;22.44;40.50;100657.19;6245928;23;20106;-43
2022/06/25 11:35:53;;;;;;;7.65;1.80;;;;;;;22.49;41.06;100652.91;6220254;23;20000;-44
2022/06/25 11:38:22;;;;;;;7.40;2.22;;;;;;;22.33;41.18;100651.75;6219475;23;20004;-43
2022/06/25 11:40:53;;;;;;;8.68;2.08;;;;;;;22.35;41.85;100660.50;6219012;23;20013;-42
2022/06/25 11:43:22;;;;;;;6.30;1.63;;;;;;;22.50;40.83;100651.16;6244406;23;20004;-42
2022/06/25 11:45:53;;;;;;;8.23;1.70;;;;;;;22.57;41.50;100642.56;6245589;23;20000;-44
2022/06/25 11:48:25;;;;;;;11.13;2.17;;;;;;;22.65;40.88;100640.03;6246232;23;20008;-44